sensor_id;sensor_type;location;lat;lon;timestamp;temperature;humidity
610;DHT22;292;48.800;9.216;2023-12-20T00:02:05;9.40;71.90
610;DHT22;292;48.800;9.216;2023-12-20T00:04:32;9.40;71.90
610;DHT22;292;48.800;9.216;2023-12-20T00:06:59;9.40;72.10
610;DHT22;292;48.800;9.216;2023-12-20T00:09:28;9.40;72.20
610;DHT22;292;48.800;9.216;2023-12-20T00:11:55;9.40;72.20
610;DHT22;292;48.800;9.216;2023-12-20T00:14:22;9.40;72.20
610;DHT22;292;48.800;9.216;2023-12-20T00:16:49;9.40;72.40
610;DHT22;292;48.800;9.216;2023-12-20T00:19:16;9.40;72.50
610;DHT22;292;48.800;9.216;2023-12-20T00:21:43;9.40;72.60
610;DHT22;292;48.800;9.216;2023-12-20T00:24:10;9.40;72.60
610;DHT22;292;48.800;9.216;2023-12-20T00:26:38;9.40;72.80
610;DHT22;292;48.800;9.216;2023-12-20T00:29:05;9.40;73.10
610;DHT22;292;48.800;9.216;2023-12-20T00:31:32;9.40;73.20
610;DHT22;292;48.800;9.216;2023-12-20T00:33:59;9.40;73.20
610;DHT22;292;48.800;9.216;2023-12-20T00:36:26;9.50;73.20
610;DHT22;292;48.800;9.216;2023-12-20T00:38:53;9.50;73.40
610;DHT22;292;48.800;9.216;2023-12-20T00:41:20;9.50;73.70
610;DHT22;292;48.800;9.216;2023-12-20T00:43:48;9.50;73.80
610;DHT22;292;48.800;9.216;2023-12-20T00:46:15;9.50;74.10
610;DHT22;292;48.800;9.216;2023-12-20T00:48:42;9.50;74.10
610;DHT22;292;48.800;9.216;2023-12-20T00:51:11;9.50;74.20
610;DHT22;292;48.800;9.216;2023-12-20T00:53:38;9.50;74.20
610;DHT22;292;48.800;9.216;2023-12-20T00:56:05;9.50;74.40
610;DHT22;292;48.800;9.216;2023-12-20T00:58:32;9.50;74.50
610;DHT22;292;48.800;9.216;2023-12-20T01:01:00;9.50;74.80
610;DHT22;292;48.800;9.216;2023-12-20T01:03:27;9.50;75.00
610;DHT22;292;48.800;9.216;2023-12-20T01:05:54;9.50;75.00
610;DHT22;292;48.800;9.216;2023-12-20T01:08:22;9.50;75.10
610;DHT22;292;48.800;9.216;2023-12-20T01:10:49;9.40;75.20
610;DHT22;292;48.800;9.216;2023-12-20T01:13:16;9.40;75.80
610;DHT22;292;48.800;9.216;2023-12-20T01:15:43;9.40;76.10
610;DHT22;292;48.800;9.216;2023-12-20T01:18:11;9.40;76.20
610;DHT22;292;48.800;9.216;2023-12-20T01:20:38;9.40;76.50
610;DHT22;292;48.800;9.216;2023-12-20T01:23:05;9.40;76.50
610;DHT22;292;48.800;9.216;2023-12-20T01:25:32;9.40;76.70
610;DHT22;292;48.800;9.216;2023-12-20T01:27:59;9.40;76.80
610;DHT22;292;48.800;9.216;2023-12-20T01:30:26;9.30;77.10
610;DHT22;292;48.800;9.216;2023-12-20T01:32:53;9.30;77.30
610;DHT22;292;48.800;9.216;2023-12-20T01:35:21;9.30;77.50
610;DHT22;292;48.800;9.216;2023-12-20T01:37:48;9.30;77.70
610;DHT22;292;48.800;9.216;2023-12-20T01:40:15;9.30;78.00
610;DHT22;292;48.800;9.216;2023-12-20T01:42:42;9.30;78.10
610;DHT22;292;48.800;9.216;2023-12-20T01:45:10;9.30;78.40
610;DHT22;292;48.800;9.216;2023-12-20T01:47:37;9.30;78.60
610;DHT22;292;48.800;9.216;2023-12-20T01:50:06;9.30;78.70
610;DHT22;292;48.800;9.216;2023-12-20T01:52:35;9.20;78.80
610;DHT22;292;48.800;9.216;2023-12-20T01:55:03;9.20;78.80
610;DHT22;292;48.800;9.216;2023-12-20T01:57:38;9.20;79.00
610;DHT22;292;48.800;9.216;2023-12-20T02:00:07;9.20;79.30
610;DHT22;292;48.800;9.216;2023-12-20T02:02:37;9.20;79.60
610;DHT22;292;48.800;9.216;2023-12-20T02:05:05;9.20;79.40
610;DHT22;292;48.800;9.216;2023-12-20T02:07:32;9.20;79.60
610;DHT22;292;48.800;9.216;2023-12-20T02:10:02;9.20;79.90
610;DHT22;292;48.800;9.216;2023-12-20T02:12:29;9.20;79.60
610;DHT22;292;48.800;9.216;2023-12-20T02:14:56;9.20;79.60
610;DHT22;292;48.800;9.216;2023-12-20T02:17:23;9.20;79.90
610;DHT22;292;48.800;9.216;2023-12-20T02:19:50;9.20;80.00
610;DHT22;292;48.800;9.216;2023-12-20T02:22:19;9.20;80.00
610;DHT22;292;48.800;9.216;2023-12-20T02:24:46;9.20;80.10
610;DHT22;292;48.800;9.216;2023-12-20T02:27:13;9.20;80.30
610;DHT22;292;48.800;9.216;2023-12-20T02:29:42;9.20;80.30
610;DHT22;292;48.800;9.216;2023-12-20T02:32:09;9.20;80.30
610;DHT22;292;48.800;9.216;2023-12-20T02:34:36;9.20;80.40
610;DHT22;292;48.800;9.216;2023-12-20T02:37:03;9.20;80.40
610;DHT22;292;48.800;9.216;2023-12-20T02:39:31;9.20;80.40
610;DHT22;292;48.800;9.216;2023-12-20T02:41:58;9.10;80.60
610;DHT22;292;48.800;9.216;2023-12-20T02:44:25;9.10;80.60
610;DHT22;292;48.800;9.216;2023-12-20T02:46:52;9.10;80.70
610;DHT22;292;48.800;9.216;2023-12-20T02:49:19;9.10;80.70
610;DHT22;292;48.800;9.216;2023-12-20T02:51:46;9.10;80.90
610;DHT22;292;48.800;9.216;2023-12-20T02:54:13;9.10;80.90
610;DHT22;292;48.800;9.216;2023-12-20T02:56:42;9.10;81.00
610;DHT22;292;48.800;9.216;2023-12-20T02:59:09;9.10;81.00
610;DHT22;292;48.800;9.216;2023-12-20T03:01:42;9.20;81.20
610;DHT22;292;48.800;9.216;2023-12-20T03:04:09;9.10;81.20
610;DHT22;292;48.800;9.216;2023-12-20T03:06:36;9.20;81.20
610;DHT22;292;48.800;9.216;2023-12-20T03:09:03;9.10;81.30
610;DHT22;292;48.800;9.216;2023-12-20T03:11:31;9.10;81.30
610;DHT22;292;48.800;9.216;2023-12-20T03:13:59;9.10;81.40
610;DHT22;292;48.800;9.216;2023-12-20T03:16:26;9.10;81.40
610;DHT22;292;48.800;9.216;2023-12-20T03:18:53;9.10;81.60
610;DHT22;292;48.800;9.216;2023-12-20T03:21:20;9.10;81.60
610;DHT22;292;48.800;9.216;2023-12-20T03:23:47;9.10;81.70
610;DHT22;292;48.800;9.216;2023-12-20T03:26:14;9.10;81.90
610;DHT22;292;48.800;9.216;2023-12-20T03:28:41;9.00;82.00
610;DHT22;292;48.800;9.216;2023-12-20T03:31:11;9.00;82.00
610;DHT22;292;48.800;9.216;2023-12-20T03:33:38;9.00;82.00
610;DHT22;292;48.800;9.216;2023-12-20T03:36:05;9.00;82.10
610;DHT22;292;48.800;9.216;2023-12-20T03:38:32;9.00;82.20
610;DHT22;292;48.800;9.216;2023-12-20T03:40:59;8.90;82.10
610;DHT22;292;48.800;9.216;2023-12-20T03:43:26;8.90;82.10
610;DHT22;292;48.800;9.216;2023-12-20T03:45:53;8.90;82.00
610;DHT22;292;48.800;9.216;2023-12-20T03:48:23;8.90;81.90
610;DHT22;292;48.800;9.216;2023-12-20T03:50:50;8.80;81.90
610;DHT22;292;48.800;9.216;2023-12-20T03:53:17;8.80;81.90
610;DHT22;292;48.800;9.216;2023-12-20T03:55:44;8.80;81.70
610;DHT22;292;48.800;9.216;2023-12-20T03:58:11;8.80;81.90
610;DHT22;292;48.800;9.216;2023-12-20T04:00:38;8.80;81.90
610;DHT22;292;48.800;9.216;2023-12-20T04:03:05;8.80;82.00
610;DHT22;292;48.800;9.216;2023-12-20T04:05:34;8.80;81.90
610;DHT22;292;48.800;9.216;2023-12-20T04:08:01;8.70;81.60
610;DHT22;292;48.800;9.216;2023-12-20T04:10:28;8.70;81.60
610;DHT22;292;48.800;9.216;2023-12-20T04:12:55;8.70;81.60
610;DHT22;292;48.800;9.216;2023-12-20T04:15:22;8.70;81.40
610;DHT22;292;48.800;9.216;2023-12-20T04:17:49;8.60;81.40
610;DHT22;292;48.800;9.216;2023-12-20T04:20:16;8.60;81.60
610;DHT22;292;48.800;9.216;2023-12-20T04:22:45;8.70;81.60
610;DHT22;292;48.800;9.216;2023-12-20T04:25:12;8.70;81.60
610;DHT22;292;48.800;9.216;2023-12-20T04:27:39;8.70;81.60
610;DHT22;292;48.800;9.216;2023-12-20T04:30:07;8.70;81.40
610;DHT22;292;48.800;9.216;2023-12-20T04:32:34;8.70;81.40
610;DHT22;292;48.800;9.216;2023-12-20T04:35:01;8.70;81.40
610;DHT22;292;48.800;9.216;2023-12-20T04:37:28;8.70;81.40
610;DHT22;292;48.800;9.216;2023-12-20T04:39:57;8.70;81.30
610;DHT22;292;48.800;9.216;2023-12-20T04:42:24;8.70;81.40
610;DHT22;292;48.800;9.216;2023-12-20T04:44:52;8.70;81.40
610;DHT22;292;48.800;9.216;2023-12-20T04:47:19;8.70;81.30
610;DHT22;292;48.800;9.216;2023-12-20T04:49:46;8.80;81.20
610;DHT22;292;48.800;9.216;2023-12-20T04:52:14;8.80;80.90
610;DHT22;292;48.800;9.216;2023-12-20T04:54:41;8.70;80.90
610;DHT22;292;48.800;9.216;2023-12-20T04:57:09;8.80;80.90
610;DHT22;292;48.800;9.216;2023-12-20T04:59:36;8.80;80.70
610;DHT22;292;48.800;9.216;2023-12-20T05:02:03;8.80;80.70
610;DHT22;292;48.800;9.216;2023-12-20T05:04:30;8.70;80.40
610;DHT22;292;48.800;9.216;2023-12-20T05:06:57;8.70;80.40
610;DHT22;292;48.800;9.216;2023-12-20T05:09:24;8.70;80.40
610;DHT22;292;48.800;9.216;2023-12-20T05:11:51;8.70;80.40
610;DHT22;292;48.800;9.216;2023-12-20T05:14:19;8.70;80.40
610;DHT22;292;48.800;9.216;2023-12-20T05:16:46;8.60;80.40
610;DHT22;292;48.800;9.216;2023-12-20T05:19:13;8.60;80.70
610;DHT22;292;48.800;9.216;2023-12-20T05:21:40;8.60;80.70
610;DHT22;292;48.800;9.216;2023-12-20T05:24:09;8.60;80.90
610;DHT22;292;48.800;9.216;2023-12-20T05:26:37;8.60;80.90
610;DHT22;292;48.800;9.216;2023-12-20T05:29:03;8.60;80.70
610;DHT22;292;48.800;9.216;2023-12-20T05:31:33;8.60;80.70
610;DHT22;292;48.800;9.216;2023-12-20T05:34:00;8.60;80.70
610;DHT22;292;48.800;9.216;2023-12-20T05:36:27;8.60;80.90
610;DHT22;292;48.800;9.216;2023-12-20T05:38:54;8.60;80.70
610;DHT22;292;48.800;9.216;2023-12-20T05:41:21;8.70;80.70
610;DHT22;292;48.800;9.216;2023-12-20T05:43:48;8.70;80.90
610;DHT22;292;48.800;9.216;2023-12-20T05:46:15;8.70;80.70
610;DHT22;292;48.800;9.216;2023-12-20T05:48:43;8.70;80.70
610;DHT22;292;48.800;9.216;2023-12-20T05:51:11;8.70;80.70
610;DHT22;292;48.800;9.216;2023-12-20T05:53:39;8.60;80.90
610;DHT22;292;48.800;9.216;2023-12-20T05:56:06;8.60;81.20
610;DHT22;292;48.800;9.216;2023-12-20T05:58:37;8.70;81.20
610;DHT22;292;48.800;9.216;2023-12-20T06:01:04;8.70;81.30
610;DHT22;292;48.800;9.216;2023-12-20T06:03:33;8.70;81.30
610;DHT22;292;48.800;9.216;2023-12-20T06:06:06;8.70;81.40
610;DHT22;292;48.800;9.216;2023-12-20T06:08:33;8.70;81.60
610;DHT22;292;48.800;9.216;2023-12-20T06:11:00;8.70;81.60
610;DHT22;292;48.800;9.216;2023-12-20T06:13:27;8.70;81.70
610;DHT22;292;48.800;9.216;2023-12-20T06:15:54;8.70;81.70
610;DHT22;292;48.800;9.216;2023-12-20T06:18:21;8.70;81.70
610;DHT22;292;48.800;9.216;2023-12-20T06:20:48;8.70;81.90
610;DHT22;292;48.800;9.216;2023-12-20T06:23:16;8.70;82.10
610;DHT22;292;48.800;9.216;2023-12-20T06:25:44;8.70;82.10
610;DHT22;292;48.800;9.216;2023-12-20T06:28:10;8.80;82.20
610;DHT22;292;48.800;9.216;2023-12-20T06:30:40;8.70;82.10
610;DHT22;292;48.800;9.216;2023-12-20T06:33:07;8.70;82.40
610;DHT22;292;48.800;9.216;2023-12-20T06:35:35;8.80;82.20
610;DHT22;292;48.800;9.216;2023-12-20T06:38:02;8.80;82.40
610;DHT22;292;48.800;9.216;2023-12-20T06:40:31;8.70;82.50
610;DHT22;292;48.800;9.216;2023-12-20T06:42:57;8.70;82.60
610;DHT22;292;48.800;9.216;2023-12-20T06:45:25;8.70;82.80
610;DHT22;292;48.800;9.216;2023-12-20T06:47:52;8.70;82.90
610;DHT22;292;48.800;9.216;2023-12-20T06:50:20;8.70;83.20
610;DHT22;292;48.800;9.216;2023-12-20T06:52:47;8.60;83.20
610;DHT22;292;48.800;9.216;2023-12-20T06:55:14;8.70;83.40
610;DHT22;292;48.800;9.216;2023-12-20T06:57:44;8.70;83.50
610;DHT22;292;48.800;9.216;2023-12-20T07:00:12;8.70;83.50
610;DHT22;292;48.800;9.216;2023-12-20T07:02:39;8.70;83.60
610;DHT22;292;48.800;9.216;2023-12-20T07:05:07;8.70;83.80
610;DHT22;292;48.800;9.216;2023-12-20T07:07:34;8.70;83.80
610;DHT22;292;48.800;9.216;2023-12-20T07:10:01;8.70;83.90
610;DHT22;292;48.800;9.216;2023-12-20T07:12:27;8.70;83.90
610;DHT22;292;48.800;9.216;2023-12-20T07:14:56;8.80;83.90
610;DHT22;292;48.800;9.216;2023-12-20T07:17:23;8.80;83.80
610;DHT22;292;48.800;9.216;2023-12-20T07:19:50;8.80;83.80
610;DHT22;292;48.800;9.216;2023-12-20T07:22:17;8.80;83.60
610;DHT22;292;48.800;9.216;2023-12-20T07:24:44;8.80;83.50
610;DHT22;292;48.800;9.216;2023-12-20T07:27:11;8.80;83.50
610;DHT22;292;48.800;9.216;2023-12-20T07:29:38;8.80;83.60
610;DHT22;292;48.800;9.216;2023-12-20T07:32:07;8.80;83.60
610;DHT22;292;48.800;9.216;2023-12-20T07:34:34;8.80;83.60
610;DHT22;292;48.800;9.216;2023-12-20T07:37:01;8.80;83.50
610;DHT22;292;48.800;9.216;2023-12-20T07:39:28;8.70;83.50
610;DHT22;292;48.800;9.216;2023-12-20T07:41:55;8.70;83.50
610;DHT22;292;48.800;9.216;2023-12-20T07:44:22;8.60;83.60
610;DHT22;292;48.800;9.216;2023-12-20T07:46:49;8.70;83.60
610;DHT22;292;48.800;9.216;2023-12-20T07:49:19;8.60;83.50
610;DHT22;292;48.800;9.216;2023-12-20T07:51:46;8.60;83.10
610;DHT22;292;48.800;9.216;2023-12-20T07:54:12;8.60;82.80
610;DHT22;292;48.800;9.216;2023-12-20T07:56:39;8.60;82.50
610;DHT22;292;48.800;9.216;2023-12-20T07:59:06;8.60;82.20
610;DHT22;292;48.800;9.216;2023-12-20T08:01:33;8.60;82.10
610;DHT22;292;48.800;9.216;2023-12-20T08:04:00;8.60;81.90
610;DHT22;292;48.800;9.216;2023-12-20T08:06:29;8.60;81.40
610;DHT22;292;48.800;9.216;2023-12-20T08:08:56;8.60;81.30
610;DHT22;292;48.800;9.216;2023-12-20T08:11:23;8.60;81.30
610;DHT22;292;48.800;9.216;2023-12-20T08:13:51;8.60;80.90
610;DHT22;292;48.800;9.216;2023-12-20T08:16:18;8.60;80.10
610;DHT22;292;48.800;9.216;2023-12-20T08:18:45;8.50;80.00
610;DHT22;292;48.800;9.216;2023-12-20T08:21:12;8.50;79.70
610;DHT22;292;48.800;9.216;2023-12-20T08:23:40;8.50;79.60
610;DHT22;292;48.800;9.216;2023-12-20T08:26:08;8.40;79.40
610;DHT22;292;48.800;9.216;2023-12-20T08:28:34;8.40;79.00
610;DHT22;292;48.800;9.216;2023-12-20T08:31:03;8.40;78.40
610;DHT22;292;48.800;9.216;2023-12-20T08:33:30;8.30;78.40
610;DHT22;292;48.800;9.216;2023-12-20T08:35:57;8.30;78.30
610;DHT22;292;48.800;9.216;2023-12-20T08:38:24;8.30;78.30
610;DHT22;292;48.800;9.216;2023-12-20T08:40:53;8.20;78.30
610;DHT22;292;48.800;9.216;2023-12-20T08:43:20;8.20;78.10
610;DHT22;292;48.800;9.216;2023-12-20T08:45:47;8.20;78.30
610;DHT22;292;48.800;9.216;2023-12-20T08:48:14;8.20;78.10
610;DHT22;292;48.800;9.216;2023-12-20T08:50:41;8.20;78.00
610;DHT22;292;48.800;9.216;2023-12-20T08:53:08;8.30;77.80
610;DHT22;292;48.800;9.216;2023-12-20T08:55:35;8.50;77.70
610;DHT22;292;48.800;9.216;2023-12-20T08:58:03;8.90;76.70
610;DHT22;292;48.800;9.216;2023-12-20T09:00:32;9.20;75.20
610;DHT22;292;48.800;9.216;2023-12-20T09:02:59;9.40;74.40
610;DHT22;292;48.800;9.216;2023-12-20T09:05:26;9.50;73.90
610;DHT22;292;48.800;9.216;2023-12-20T09:07:53;9.70;73.40
610;DHT22;292;48.800;9.216;2023-12-20T09:10:20;9.80;72.90
610;DHT22;292;48.800;9.216;2023-12-20T09:12:49;9.90;72.50
610;DHT22;292;48.800;9.216;2023-12-20T09:15:18;10.00;72.50
610;DHT22;292;48.800;9.216;2023-12-20T09:17:45;10.10;72.40
610;DHT22;292;48.800;9.216;2023-12-20T09:20:12;10.10;71.50
610;DHT22;292;48.800;9.216;2023-12-20T09:22:39;10.10;70.80
610;DHT22;292;48.800;9.216;2023-12-20T09:25:07;10.10;70.20
610;DHT22;292;48.800;9.216;2023-12-20T09:27:35;10.10;70.30
610;DHT22;292;48.800;9.216;2023-12-20T09:30:03;10.10;70.30
610;DHT22;292;48.800;9.216;2023-12-20T09:32:32;10.10;70.00
610;DHT22;292;48.800;9.216;2023-12-20T09:34:59;10.30;70.00
610;DHT22;292;48.800;9.216;2023-12-20T09:37:26;10.50;70.00
610;DHT22;292;48.800;9.216;2023-12-20T09:39:53;10.70;69.30
610;DHT22;292;48.800;9.216;2023-12-20T09:42:24;10.80;68.60
610;DHT22;292;48.800;9.216;2023-12-20T09:44:58;10.90;68.00
610;DHT22;292;48.800;9.216;2023-12-20T09:47:27;11.00;67.30
610;DHT22;292;48.800;9.216;2023-12-20T09:49:59;11.00;66.30
610;DHT22;292;48.800;9.216;2023-12-20T09:52:26;11.10;65.30
610;DHT22;292;48.800;9.216;2023-12-20T09:54:53;11.10;64.70
610;DHT22;292;48.800;9.216;2023-12-20T09:57:22;11.20;64.00
610;DHT22;292;48.800;9.216;2023-12-20T09:59:49;11.40;63.60
610;DHT22;292;48.800;9.216;2023-12-20T10:02:19;11.60;62.40
610;DHT22;292;48.800;9.216;2023-12-20T10:04:48;12.00;61.70
610;DHT22;292;48.800;9.216;2023-12-20T10:07:17;12.40;60.80
610;DHT22;292;48.800;9.216;2023-12-20T10:09:44;12.70;59.20
610;DHT22;292;48.800;9.216;2023-12-20T10:12:12;12.90;58.10
610;DHT22;292;48.800;9.216;2023-12-20T10:14:39;13.10;57.80
610;DHT22;292;48.800;9.216;2023-12-20T10:17:06;13.30;56.20
610;DHT22;292;48.800;9.216;2023-12-20T10:19:34;13.50;55.20
610;DHT22;292;48.800;9.216;2023-12-20T10:22:01;13.50;53.60
610;DHT22;292;48.800;9.216;2023-12-20T10:24:32;13.40;53.70
610;DHT22;292;48.800;9.216;2023-12-20T10:27:02;13.20;52.50
610;DHT22;292;48.800;9.216;2023-12-20T10:29:39;12.80;51.60
610;DHT22;292;48.800;9.216;2023-12-20T10:32:23;12.30;51.80
610;DHT22;292;48.800;9.216;2023-12-20T10:34:51;11.80;52.10
610;DHT22;292;48.800;9.216;2023-12-20T10:37:18;11.40;52.60
610;DHT22;292;48.800;9.216;2023-12-20T10:39:50;11.00;53.80
610;DHT22;292;48.800;9.216;2023-12-20T10:42:20;10.60;54.90
610;DHT22;292;48.800;9.216;2023-12-20T10:44:49;10.30;56.00
610;DHT22;292;48.800;9.216;2023-12-20T10:47:17;10.10;57.00
610;DHT22;292;48.800;9.216;2023-12-20T10:49:45;9.90;57.80
610;DHT22;292;48.800;9.216;2023-12-20T10:52:13;9.70;58.60
610;DHT22;292;48.800;9.216;2023-12-20T10:54:42;9.60;59.30
610;DHT22;292;48.800;9.216;2023-12-20T10:57:11;9.50;60.10
610;DHT22;292;48.800;9.216;2023-12-20T10:59:39;9.40;60.50
610;DHT22;292;48.800;9.216;2023-12-20T11:02:06;9.30;60.70
610;DHT22;292;48.800;9.216;2023-12-20T11:04:40;9.20;61.10
610;DHT22;292;48.800;9.216;2023-12-20T11:07:23;9.10;61.20
610;DHT22;292;48.800;9.216;2023-12-20T11:09:57;9.10;61.50
610;DHT22;292;48.800;9.216;2023-12-20T11:12:36;9.00;61.70
610;DHT22;292;48.800;9.216;2023-12-20T11:15:05;9.00;62.00
610;DHT22;292;48.800;9.216;2023-12-20T11:17:33;9.00;62.30
610;DHT22;292;48.800;9.216;2023-12-20T11:20:08;9.00;61.80
610;DHT22;292;48.800;9.216;2023-12-20T11:22:37;8.90;61.80
610;DHT22;292;48.800;9.216;2023-12-20T11:25:08;8.90;62.30
610;DHT22;292;48.800;9.216;2023-12-20T11:27:41;8.90;61.80
610;DHT22;292;48.800;9.216;2023-12-20T11:30:09;8.90;62.30
610;DHT22;292;48.800;9.216;2023-12-20T11:32:37;8.90;62.40
610;DHT22;292;48.800;9.216;2023-12-20T11:35:17;8.90;62.40
610;DHT22;292;48.800;9.216;2023-12-20T11:37:51;8.80;62.10
610;DHT22;292;48.800;9.216;2023-12-20T11:40:18;8.80;61.70
610;DHT22;292;48.800;9.216;2023-12-20T11:42:50;8.80;61.70
610;DHT22;292;48.800;9.216;2023-12-20T11:45:20;8.70;61.80
610;DHT22;292;48.800;9.216;2023-12-20T11:47:48;8.70;61.70
610;DHT22;292;48.800;9.216;2023-12-20T11:50:16;8.70;61.70
610;DHT22;292;48.800;9.216;2023-12-20T11:52:43;8.60;62.00
610;DHT22;292;48.800;9.216;2023-12-20T11:55:10;8.60;62.00
610;DHT22;292;48.800;9.216;2023-12-20T11:57:38;8.60;61.80
610;DHT22;292;48.800;9.216;2023-12-20T12:00:07;8.60;62.00
610;DHT22;292;48.800;9.216;2023-12-20T12:02:34;8.60;62.00
610;DHT22;292;48.800;9.216;2023-12-20T12:05:01;8.60;61.80
610;DHT22;292;48.800;9.216;2023-12-20T12:07:30;8.60;61.50
610;DHT22;292;48.800;9.216;2023-12-20T12:09:58;8.60;61.70
610;DHT22;292;48.800;9.216;2023-12-20T12:12:25;8.60;62.00
610;DHT22;292;48.800;9.216;2023-12-20T12:14:54;8.60;62.10
610;DHT22;292;48.800;9.216;2023-12-20T12:17:23;8.60;62.30
610;DHT22;292;48.800;9.216;2023-12-20T12:19:51;8.70;62.40
610;DHT22;292;48.800;9.216;2023-12-20T12:22:28;8.70;62.30
610;DHT22;292;48.800;9.216;2023-12-20T12:24:59;8.70;61.80
610;DHT22;292;48.800;9.216;2023-12-20T12:27:27;8.80;61.80
610;DHT22;292;48.800;9.216;2023-12-20T12:30:02;8.80;62.10
610;DHT22;292;48.800;9.216;2023-12-20T12:32:31;8.90;62.00
610;DHT22;292;48.800;9.216;2023-12-20T12:34:59;8.90;61.80
610;DHT22;292;48.800;9.216;2023-12-20T12:37:25;8.90;62.00
610;DHT22;292;48.800;9.216;2023-12-20T12:39:53;8.90;61.80
610;DHT22;292;48.800;9.216;2023-12-20T12:42:21;9.00;61.70
610;DHT22;292;48.800;9.216;2023-12-20T12:44:51;9.00;61.20
610;DHT22;292;48.800;9.216;2023-12-20T12:47:18;9.00;61.10
610;DHT22;292;48.800;9.216;2023-12-20T12:49:46;9.00;61.50
610;DHT22;292;48.800;9.216;2023-12-20T12:52:15;9.00;61.50
610;DHT22;292;48.800;9.216;2023-12-20T12:54:41;9.00;61.70
610;DHT22;292;48.800;9.216;2023-12-20T12:57:10;9.10;61.70
610;DHT22;292;48.800;9.216;2023-12-20T12:59:37;9.10;61.70
610;DHT22;292;48.800;9.216;2023-12-20T13:02:04;9.20;61.50
610;DHT22;292;48.800;9.216;2023-12-20T13:04:33;9.20;61.20
610;DHT22;292;48.800;9.216;2023-12-20T13:07:01;9.20;61.10
610;DHT22;292;48.800;9.216;2023-12-20T13:09:28;9.20;61.00
610;DHT22;292;48.800;9.216;2023-12-20T13:11:55;9.20;61.00
610;DHT22;292;48.800;9.216;2023-12-20T13:14:22;9.20;60.80
610;DHT22;292;48.800;9.216;2023-12-20T13:16:49;9.20;60.80
610;DHT22;292;48.800;9.216;2023-12-20T13:19:16;9.20;60.80
610;DHT22;292;48.800;9.216;2023-12-20T13:21:43;9.20;60.70
610;DHT22;292;48.800;9.216;2023-12-20T13:24:12;9.20;60.70
610;DHT22;292;48.800;9.216;2023-12-20T13:26:39;9.10;60.50
610;DHT22;292;48.800;9.216;2023-12-20T13:29:06;9.10;60.20
610;DHT22;292;48.800;9.216;2023-12-20T13:31:33;9.10;60.20
610;DHT22;292;48.800;9.216;2023-12-20T13:34:02;9.10;60.10
610;DHT22;292;48.800;9.216;2023-12-20T13:36:28;9.10;60.10
610;DHT22;292;48.800;9.216;2023-12-20T13:38:55;9.10;60.10
610;DHT22;292;48.800;9.216;2023-12-20T13:41:23;9.10;60.10
610;DHT22;292;48.800;9.216;2023-12-20T13:43:50;9.10;60.10
610;DHT22;292;48.800;9.216;2023-12-20T13:46:18;9.10;60.10
610;DHT22;292;48.800;9.216;2023-12-20T13:48:45;9.10;60.20
610;DHT22;292;48.800;9.216;2023-12-20T13:51:12;9.10;60.40
610;DHT22;292;48.800;9.216;2023-12-20T13:53:39;9.10;60.70
610;DHT22;292;48.800;9.216;2023-12-20T13:56:06;9.10;60.50
610;DHT22;292;48.800;9.216;2023-12-20T13:58:35;9.20;60.50
610;DHT22;292;48.800;9.216;2023-12-20T14:01:02;9.20;60.50
610;DHT22;292;48.800;9.216;2023-12-20T14:03:29;9.20;60.50
610;DHT22;292;48.800;9.216;2023-12-20T14:05:56;9.20;60.50
610;DHT22;292;48.800;9.216;2023-12-20T14:08:23;9.20;60.70
610;DHT22;292;48.800;9.216;2023-12-20T14:10:50;9.20;60.70
610;DHT22;292;48.800;9.216;2023-12-20T14:13:16;9.10;60.80
610;DHT22;292;48.800;9.216;2023-12-20T14:15:45;9.10;61.00
610;DHT22;292;48.800;9.216;2023-12-20T14:18:12;9.10;61.10
610;DHT22;292;48.800;9.216;2023-12-20T14:20:40;9.10;61.10
610;DHT22;292;48.800;9.216;2023-12-20T14:23:08;9.10;61.40
610;DHT22;292;48.800;9.216;2023-12-20T14:25:36;9.10;61.40
610;DHT22;292;48.800;9.216;2023-12-20T14:28:04;9.10;61.50
610;DHT22;292;48.800;9.216;2023-12-20T14:30:31;9.00;61.70
610;DHT22;292;48.800;9.216;2023-12-20T14:33:00;9.00;61.70
610;DHT22;292;48.800;9.216;2023-12-20T14:35:26;9.00;62.00
610;DHT22;292;48.800;9.216;2023-12-20T14:37:53;9.10;62.30
610;DHT22;292;48.800;9.216;2023-12-20T14:40:20;9.10;62.40
610;DHT22;292;48.800;9.216;2023-12-20T14:42:47;9.10;62.40
610;DHT22;292;48.800;9.216;2023-12-20T14:45:16;9.10;62.50
610;DHT22;292;48.800;9.216;2023-12-20T14:47:43;9.10;62.70
610;DHT22;292;48.800;9.216;2023-12-20T14:50:12;9.00;62.80
610;DHT22;292;48.800;9.216;2023-12-20T14:52:43;9.00;62.80
610;DHT22;292;48.800;9.216;2023-12-20T14:55:13;9.00;63.00
610;DHT22;292;48.800;9.216;2023-12-20T14:57:40;9.00;63.30
610;DHT22;292;48.800;9.216;2023-12-20T15:00:07;9.00;63.40
610;DHT22;292;48.800;9.216;2023-12-20T15:02:34;8.90;63.60
610;DHT22;292;48.800;9.216;2023-12-20T15:05:01;8.90;63.70
610;DHT22;292;48.800;9.216;2023-12-20T15:07:30;8.90;64.00
610;DHT22;292;48.800;9.216;2023-12-20T15:09:57;8.80;64.40
610;DHT22;292;48.800;9.216;2023-12-20T15:12:24;8.80;64.60
610;DHT22;292;48.800;9.216;2023-12-20T15:14:51;8.80;65.00
610;DHT22;292;48.800;9.216;2023-12-20T15:17:18;8.80;65.10
610;DHT22;292;48.800;9.216;2023-12-20T15:19:45;8.70;65.40
610;DHT22;292;48.800;9.216;2023-12-20T15:22:12;8.80;65.60
610;DHT22;292;48.800;9.216;2023-12-20T15:24:40;8.80;65.70
610;DHT22;292;48.800;9.216;2023-12-20T15:27:09;8.70;65.70
610;DHT22;292;48.800;9.216;2023-12-20T15:29:36;8.70;65.90
610;DHT22;292;48.800;9.216;2023-12-20T15:32:04;8.70;66.00
610;DHT22;292;48.800;9.216;2023-12-20T15:34:31;8.70;65.90
610;DHT22;292;48.800;9.216;2023-12-20T15:36:58;8.70;66.20
610;DHT22;292;48.800;9.216;2023-12-20T15:39:25;8.70;66.20
610;DHT22;292;48.800;9.216;2023-12-20T15:41:54;8.70;66.40
610;DHT22;292;48.800;9.216;2023-12-20T15:44:21;8.70;66.40
610;DHT22;292;48.800;9.216;2023-12-20T15:46:48;8.60;66.40
610;DHT22;292;48.800;9.216;2023-12-20T15:49:16;8.60;66.60
610;DHT22;292;48.800;9.216;2023-12-20T15:51:44;8.60;66.70
610;DHT22;292;48.800;9.216;2023-12-20T15:54:11;8.50;67.00
610;DHT22;292;48.800;9.216;2023-12-20T15:56:38;8.50;67.20
610;DHT22;292;48.800;9.216;2023-12-20T15:59:08;8.50;67.50
610;DHT22;292;48.800;9.216;2023-12-20T16:01:35;8.40;67.70
610;DHT22;292;48.800;9.216;2023-12-20T16:04:03;8.40;68.20
610;DHT22;292;48.800;9.216;2023-12-20T16:06:30;8.50;68.50
610;DHT22;292;48.800;9.216;2023-12-20T16:08:57;8.50;68.70
610;DHT22;292;48.800;9.216;2023-12-20T16:11:24;8.50;68.90
610;DHT22;292;48.800;9.216;2023-12-20T16:13:51;8.50;68.90
610;DHT22;292;48.800;9.216;2023-12-20T16:16:19;8.40;68.90
610;DHT22;292;48.800;9.216;2023-12-20T16:18:46;8.40;69.00
610;DHT22;292;48.800;9.216;2023-12-20T16:21:13;8.30;69.30
610;DHT22;292;48.800;9.216;2023-12-20T16:23:40;8.30;69.50
610;DHT22;292;48.800;9.216;2023-12-20T16:26:07;8.30;69.80
610;DHT22;292;48.800;9.216;2023-12-20T16:28:34;8.30;69.90
610;DHT22;292;48.800;9.216;2023-12-20T16:31:01;8.20;69.90
610;DHT22;292;48.800;9.216;2023-12-20T16:33:30;8.20;70.20
610;DHT22;292;48.800;9.216;2023-12-20T16:35:57;8.20;70.30
610;DHT22;292;48.800;9.216;2023-12-20T16:38:24;8.20;70.30
610;DHT22;292;48.800;9.216;2023-12-20T16:40:51;8.10;70.30
610;DHT22;292;48.800;9.216;2023-12-20T16:43:18;8.10;70.50
610;DHT22;292;48.800;9.216;2023-12-20T16:45:45;8.10;70.90
610;DHT22;292;48.800;9.216;2023-12-20T16:48:14;8.10;70.90
610;DHT22;292;48.800;9.216;2023-12-20T16:50:43;8.00;71.10
610;DHT22;292;48.800;9.216;2023-12-20T16:53:10;8.00;71.20